Time;durP1;ratioP1;P1;durP2;ratioP2;P2;SDS_P1;SDS_P2;PMS_P1;PMS_P2;Temp;Humidity;BMP_temperature;BMP_pressure;BME280_temperature;BME280_humidity;BME280_pressure;Samples;Min_cycle;Max_cycle;Signal;HPM_P1;HPM_P2
2022/01/14 00:02:12;;;;;;;59.72;20.52;;;6.30;84.50;;;;;;5064091;28;20238;-87
2022/01/14 00:04:38;;;;;;;47.30;20.50;;;6.30;84.70;;;;;;5062955;28;20169;-87
2022/01/14 00:07:04;;;;;;;53.63;21.88;;;6.10;84.90;;;;;;5060960;28;20458;-88
2022/01/14 00:09:32;;;;;;;45.67;21.02;;;5.90;85.30;;;;;;5056408;28;20220;-87
2022/01/14 00:11:59;;;;;;;64.43;23.13;;;5.90;85.60;;;;;;5056693;28;20198;-87
2022/01/14 00:14:45;;;;;;;53.20;21.38;;;5.80;85.80;;;;;;5056059;28;20229;-87
2022/01/14 00:17:13;;;;;;;59.00;20.40;;;5.90;86.10;;;;;;5057586;28;20197;-87
2022/01/14 00:19:41;;;;;;;51.40;19.50;;;5.90;86.20;;;;;;5057465;28;20189;-87
2022/01/14 00:22:11;;;;;;;48.17;19.45;;;5.90;86.30;;;;;;5062397;28;20216;-87
2022/01/14 00:33:09;;;;;;;44.42;18.92;;;5.80;87.10;;;;;;5054651;28;20215;-87
2022/01/14 00:35:42;;;;;;;60.55;23.60;;;5.90;87.10;;;;;;5054962;28;20181;-87
2022/01/14 00:38:09;;;;;;;54.47;19.98;;;6.10;86.90;;;;;;5037593;28;20311;-87
2022/01/14 00:40:35;;;;;;;51.72;21.58;;;6.20;86.40;;;;;;5039734;28;20327;-87
2022/01/14 00:43:02;;;;;;;55.23;22.37;;;6.10;85.80;;;;;;5076978;28;20160;-86
2022/01/14 00:45:28;;;;;;;53.60;23.40;;;5.80;85.70;;;;;;5066699;28;20471;-88
2022/01/14 00:47:53;;;;;;;55.60;21.77;;;5.50;86.10;;;;;;5058607;28;20550;-87
2022/01/14 00:50:20;;;;;;;50.77;21.17;;;5.70;86.50;;;;;;5059187;28;20981;-86
2022/01/14 00:52:47;;;;;;;66.55;23.40;;;5.60;86.50;;;;;;5058688;28;20445;-87
2022/01/14 00:55:17;;;;;;;46.22;20.10;;;5.50;86.80;;;;;;5061288;28;20214;-86
2022/01/14 01:00:24;;;;;;;56.60;21.77;;;5.80;86.80;;;;;;5075952;28;20197;-87
2022/01/14 01:02:54;;;;;;;50.78;21.30;;;6.00;85.90;;;;;;5057285;28;20238;-87
2022/01/14 01:05:25;;;;;;;60.40;21.25;;;6.00;85.50;;;;;;5062738;28;20707;-86
2022/01/14 01:08:12;;;;;;;65.25;20.90;;;5.60;85.70;;;;;;5056170;28;20250;-87
2022/01/14 01:10:49;;;;;;;55.80;21.85;;;5.50;85.80;;;;;;5056657;28;20204;-87
2022/01/14 01:13:24;;;;;;;46.75;23.10;;;5.30;86.20;;;;;;5056218;28;20176;-87
2022/01/14 01:15:50;;;;;;;42.40;18.05;;;5.30;86.60;;;;;;5056471;28;20183;-87
2022/01/14 01:18:18;;;;;;;54.78;20.40;;;5.40;86.30;;;;;;5057108;28;20220;-87
2022/01/14 01:20:43;;;;;;;42.95;20.15;;;5.20;86.10;;;;;;5073693;28;20173;-87
2022/01/14 01:23:09;;;;;;;44.57;20.40;;;5.10;86.30;;;;;;5037612;28;20185;-87
2022/01/14 01:25:43;;;;;;;55.53;20.60;;;5.40;86.50;;;;;;5039084;28;20646;-87
2022/01/14 01:28:09;;;;;;;46.53;20.50;;;5.40;86.40;;;;;;5043107;28;20605;-87
2022/01/14 01:33:02;;;;;;;50.73;21.50;;;5.10;86.40;;;;;;5058956;28;20181;-85
2022/01/14 01:35:29;;;;;;;52.67;21.80;;;5.10;86.70;;;;;;5039625;28;20404;-87
2022/01/14 01:37:55;;;;;;;51.97;20.27;;;4.90;86.80;;;;;;5053580;28;20193;-87
2022/01/14 01:40:22;;;;;;;53.50;23.60;;;4.70;87.30;;;;;;5062155;28;20176;-87
2022/01/14 01:42:48;;;;;;;54.20;20.00;;;4.90;87.70;;;;;;5055354;28;20634;-87
2022/01/14 01:45:21;;;;;;;59.88;20.73;;;5.00;87.70;;;;;;5055631;28;20215;-86
2022/01/14 01:47:50;;;;;;;42.05;21.17;;;5.10;87.80;;;;;;5055688;28;20235;-86
2022/01/14 01:50:18;;;;;;;54.38;24.50;;;5.30;87.70;;;;;;5055919;28;20228;-87
2022/01/14 01:52:45;;;;;;;53.30;23.67;;;5.30;87.60;;;;;;5054921;28;20172;-87
2022/01/14 01:55:11;;;;;;;56.50;21.35;;;5.30;87.30;;;;;;5073851;28;20858;-88
2022/01/14 01:57:37;;;;;;;57.15;23.38;;;5.40;86.90;;;;;;5074466;28;20214;-87
2022/01/14 02:00:05;;;;;;;55.90;22.77;;;5.40;86.50;;;;;;5057455;28;20648;-88
2022/01/14 02:02:31;;;;;;;53.10;23.45;;;5.50;86.30;;;;;;5076948;28;20911;-87
2022/01/14 02:05:05;;;;;;;59.60;23.35;;;5.30;86.20;;;;;;5059199;28;20191;-88
2022/01/14 02:07:35;;;;;;;59.70;24.15;;;5.30;86.30;;;;;;5059219;28;20273;-88
2022/01/14 02:10:01;;;;;;;50.45;23.20;;;5.20;85.90;;;;;;5076782;28;20645;-87
2022/01/14 02:12:35;;;;;;;54.30;21.55;;;5.10;86.00;;;;;;5058903;28;20641;-86
2022/01/14 02:15:12;;;;;;;49.88;22.70;;;5.20;86.20;;;;;;5059265;28;20171;-87
2022/01/14 02:18:14;;;;;;;51.58;22.40;;;5.20;86.30;;;;;;5058933;28;20192;-87
2022/01/14 02:23:08;;;;;;;57.13;23.40;;;5.20;86.70;;;;;;5057048;28;20199;-87
2022/01/14 02:25:34;;;;;;;84.43;25.92;;;5.20;86.30;;;;;;5055426;28;20209;-87
2022/01/14 02:28:13;;;;;;;52.23;21.30;;;5.00;86.00;;;;;;5058461;28;20204;-87
2022/01/14 02:30:41;;;;;;;55.30;23.52;;;5.10;86.20;;;;;;5056988;28;20451;-87
2022/01/14 02:33:09;;;;;;;48.17;21.90;;;5.20;86.20;;;;;;5039673;28;20177;-87
2022/01/14 02:35:36;;;;;;;54.72;22.60;;;5.20;86.30;;;;;;5058411;28;20181;-87
2022/01/14 02:38:03;;;;;;;58.30;24.67;;;5.00;85.90;;;;;;5078263;28;20275;-87
2022/01/14 02:40:29;;;;;;;57.67;24.05;;;5.10;85.90;;;;;;5061016;28;20173;-87
2022/01/14 02:42:59;;;;;;;43.38;22.08;;;5.10;85.90;;;;;;5058876;28;20655;-87
2022/01/14 02:45:30;;;;;;;51.60;22.83;;;5.20;86.00;;;;;;5058836;28;20586;-87
2022/01/14 02:47:56;;;;;;;49.95;21.15;;;5.30;85.70;;;;;;5060147;28;20197;-87
2022/01/14 02:50:24;;;;;;;48.73;21.90;;;5.00;85.20;;;;;;5072462;28;20223;-88
2022/01/14 02:55:21;;;;;;;49.90;22.00;;;4.70;86.10;;;;;;5086740;28;20244;-88
2022/01/14 02:57:53;;;;;;;47.53;18.83;;;4.60;86.40;;;;;;5082056;28;20196;-87
2022/01/14 03:00:22;;;;;;;44.28;19.67;;;4.50;86.60;;;;;;5062180;28;20196;-87
2022/01/14 03:02:50;;;;;;;39.95;21.10;;;4.60;86.80;;;;;;5061041;28;20187;-86
2022/01/14 03:05:17;;;;;;;43.72;20.23;;;4.60;86.70;;;;;;5043680;28;20275;-87
2022/01/14 03:07:43;;;;;;;47.95;21.48;;;4.80;86.70;;;;;;5057860;28;20223;-87
2022/01/14 03:10:11;;;;;;;47.53;21.48;;;4.70;86.50;;;;;;5060172;28;20299;-87
2022/01/14 03:12:40;;;;;;;48.97;22.00;;;4.40;86.40;;;;;;5058593;28;20180;-87
2022/01/14 03:15:07;;;;;;;55.00;23.08;;;4.50;86.80;;;;;;5057687;28;20216;-85
2022/01/14 03:17:33;;;;;;;47.90;22.92;;;4.30;86.70;;;;;;5057036;28;20189;-86
2022/01/14 03:20:00;;;;;;;42.67;21.23;;;4.50;87.00;;;;;;5056943;28;20184;-86
2022/01/14 03:22:34;;;;;;;69.88;23.20;;;4.70;87.00;;;;;;5041664;28;20184;-86
2022/01/14 03:27:45;;;;;;;58.25;23.60;;;4.80;86.30;;;;;;5055136;28;20254;-86
2022/01/14 03:30:12;;;;;;;55.30;22.23;;;4.90;86.10;;;;;;5036880;28;20209;-86
2022/01/14 03:32:39;;;;;;;47.80;20.67;;;4.80;85.70;;;;;;5036931;28;20181;-86
2022/01/14 03:35:06;;;;;;;58.15;22.73;;;4.60;85.50;;;;;;5036681;28;20177;-86
2022/01/14 03:37:32;;;;;;;53.13;23.08;;;4.60;85.80;;;;;;5054735;28;20193;-86
2022/01/14 03:39:58;;;;;;;49.87;22.77;;;4.60;86.00;;;;;;5037397;28;20838;-86
2022/01/14 03:42:24;;;;;;;56.53;22.10;;;4.70;86.10;;;;;;5040767;28;20431;-86
2022/01/14 03:44:49;;;;;;;52.45;24.55;;;4.60;86.10;;;;;;5056387;28;20793;-86
2022/01/14 03:47:15;;;;;;;53.83;21.90;;;4.40;86.40;;;;;;5057179;28;20200;-86
2022/01/14 03:49:41;;;;;;;45.00;22.37;;;4.20;86.80;;;;;;5056913;28;20602;-86
2022/01/14 03:52:06;;;;;;;48.87;24.17;;;4.10;87.30;;;;;;5075658;28;20176;-86
2022/01/14 03:54:32;;;;;;;61.63;24.90;;;4.20;87.40;;;;;;5056875;28;20705;-86
2022/01/14 03:56:58;;;;;;;45.13;21.10;;;4.10;87.60;;;;;;5057484;28;20438;-86
2022/01/14 03:59:24;;;;;;;47.20;21.47;;;4.10;87.70;;;;;;5057532;28;20309;-87
2022/01/14 04:01:49;;;;;;;55.50;23.97;;;4.30;87.80;;;;;;5056622;28;20191;-87
2022/01/14 04:04:15;;;;;;;49.77;21.60;;;4.60;87.50;;;;;;5056910;28;20471;-86
2022/01/14 04:06:40;;;;;;;46.13;20.93;;;4.80;86.90;;;;;;5074772;28;20224;-86
2022/01/14 04:09:06;;;;;;;50.80;22.70;;;5.00;86.10;;;;;;5057568;28;20234;-85
2022/01/14 04:11:33;;;;;;;49.60;20.83;;;4.90;84.90;;;;;;5074592;28;20207;-86
2022/01/14 04:15:36;;;;;;;38.10;20.23;;;4.90;84.30;;;;;;5055939;28;20455;-86
2022/01/14 04:16:53;;;;;;;43.50;19.27;;;4.70;83.80;;;;;;5075151;28;20675;-86
2022/01/14 04:19:19;;;;;;;46.90;21.38;;;4.60;83.70;;;;;;5057994;28;20177;-86
2022/01/14 04:21:45;;;;;;;43.17;21.60;;;4.60;83.80;;;;;;5050770;28;20605;-86
2022/01/14 04:24:10;;;;;;;45.83;20.17;;;4.60;84.10;;;;;;5044325;28;20911;-86
2022/01/14 04:26:36;;;;;;;47.20;21.20;;;4.40;84.50;;;;;;5044360;28;20216;-87
2022/01/14 04:29:02;;;;;;;55.57;21.27;;;4.40;85.00;;;;;;5053005;28;20476;-87
2022/01/14 04:31:28;;;;;;;59.78;23.90;;;4.40;85.10;;;;;;5065275;28;20238;-87
2022/01/14 04:33:54;;;;;;;56.33;25.33;;;4.30;85.60;;;;;;5064312;28;20641;-86
2022/01/14 04:36:20;;;;;;;51.77;22.17;;;4.20;85.90;;;;;;5059490;28;20644;-86
2022/01/14 04:38:45;;;;;;;65.53;22.63;;;4.20;86.20;;;;;;5059392;28;20176;-87
2022/01/14 04:41:12;;;;;;;57.23;23.80;;;4.10;86.60;;;;;;5056662;28;20267;-86
2022/01/14 04:43:38;;;;;;;55.55;23.10;;;4.00;87.00;;;;;;5056435;28;20210;-87
2022/01/14 04:48:35;;;;;;;50.30;21.80;;;4.10;87.30;;;;;;5085804;28;20175;-86
2022/01/14 04:51:12;;;;;;;55.65;22.13;;;4.20;87.30;;;;;;5074119;28;20192;-86
2022/01/14 04:53:38;;;;;;;60.65;23.05;;;4.40;87.20;;;;;;5055756;28;20176;-86
2022/01/14 04:56:04;;;;;;;40.78;21.58;;;4.50;87.10;;;;;;5056319;28;20199;-87
2022/01/14 04:58:30;;;;;;;58.50;26.50;;;4.30;86.80;;;;;;5056156;28;20195;-86
2022/01/14 05:00:56;;;;;;;68.32;24.27;;;4.20;86.70;;;;;;5057358;28;20945;-86
2022/01/14 05:03:22;;;;;;;50.90;22.92;;;4.30;86.90;;;;;;5056574;28;20180;-86
2022/01/14 05:05:51;;;;;;;51.43;24.77;;;4.40;86.90;;;;;;5055342;28;20562;-87
2022/01/14 05:08:24;;;;;;;52.63;24.20;;;4.60;86.70;;;;;;5055984;28;20530;-86
2022/01/14 05:13:19;;;;;;;55.88;21.42;;;4.80;85.40;;;;;;5072971;28;20651;-86
2022/01/14 05:15:46;;;;;;;46.83;20.85;;;4.50;85.40;;;;;;5055966;28;20295;-86
2022/01/14 05:18:11;;;;;;;68.10;22.55;;;4.20;85.50;;;;;;5056288;28;20177;-86
2022/01/14 05:20:37;;;;;;;63.50;24.87;;;4.00;86.00;;;;;;5056548;28;20191;-87
2022/01/14 05:23:03;;;;;;;57.80;22.60;;;3.90;86.60;;;;;;5074236;28;20410;-86
2022/01/14 05:25:30;;;;;;;64.50;26.30;;;4.10;87.00;;;;;;5056125;28;20423;-86
2022/01/14 05:27:55;;;;;;;54.55;23.17;;;4.20;87.10;;;;;;5058975;28;20220;-86
2022/01/14 05:30:21;;;;;;;63.33;23.10;;;4.70;87.00;;;;;;5058917;28;20208;-86
2022/01/14 05:32:50;;;;;;;57.37;25.57;;;4.80;86.00;;;;;;5055816;28;20180;-86
2022/01/14 05:35:18;;;;;;;61.15;25.55;;;4.90;85.50;;;;;;5057306;28;20169;-86
2022/01/14 05:37:44;;;;;;;48.28;24.15;;;4.90;84.80;;;;;;5059527;28;20203;-87
2022/01/14 05:40:11;;;;;;;53.40;23.20;;;5.00;84.40;;;;;;5077570;28;20173;-87
2022/01/14 05:42:37;;;;;;;51.90;21.73;;;4.90;83.90;;;;;;5059565;28;20211;-87
2022/01/14 05:45:07;;;;;;;45.57;24.23;;;4.80;83.70;;;;;;5060604;28;20184;-87
2022/01/14 05:47:34;;;;;;;55.47;23.20;;;4.80;83.80;;;;;;5059764;28;20434;-86
2022/01/14 05:50:00;;;;;;;41.47;21.02;;;4.60;83.80;;;;;;5059804;28;20226;-86
2022/01/14 05:52:26;;;;;;;43.75;20.83;;;4.10;84.10;;;;;;5062814;28;20179;-86
2022/01/14 05:54:53;;;;;;;49.17;21.80;;;4.20;84.80;;;;;;5062384;28;20271;-87
2022/01/14 05:57:20;;;;;;;47.22;23.27;;;4.30;85.20;;;;;;5064046;28;20438;-87
2022/01/14 05:59:46;;;;;;;41.65;20.65;;;4.30;85.50;;;;;;5062934;28;20637;-86
2022/01/14 06:02:12;;;;;;;41.45;20.30;;;4.30;85.50;;;;;;5068087;28;20192;-86
2022/01/14 06:04:38;;;;;;;47.33;21.00;;;4.20;85.60;;;;;;5086535;28;20173;-87
2022/01/14 06:07:04;;;;;;;37.33;19.40;;;4.30;85.80;;;;;;5071131;28;20215;-87
2022/01/14 06:09:29;;;;;;;45.13;19.88;;;4.40;85.40;;;;;;5062917;28;20419;-86
2022/01/14 06:11:55;;;;;;;41.23;20.30;;;4.50;85.00;;;;;;5059625;28;20172;-86
2022/01/14 06:14:21;;;;;;;42.87;20.30;;;4.40;84.90;;;;;;5040681;28;20416;-86
2022/01/14 06:16:47;;;;;;;44.60;19.43;;;4.40;84.80;;;;;;5041017;28;20708;-87
2022/01/14 06:19:13;;;;;;;42.70;21.45;;;4.60;84.70;;;;;;5043376;28;20223;-88
2022/01/14 06:21:39;;;;;;;51.07;20.60;;;4.20;84.10;;;;;;5043347;28;20185;-87
2022/01/14 06:24:12;;;;;;;48.03;21.73;;;4.00;84.90;;;;;;5053797;28;20454;-87
2022/01/14 06:26:38;;;;;;;41.70;22.02;;;4.10;85.10;;;;;;5068932;28;20197;-87
2022/01/14 06:29:03;;;;;;;42.53;20.07;;;4.10;85.30;;;;;;5068831;28;20290;-87
2022/01/14 06:31:29;;;;;;;46.23;22.87;;;3.90;85.30;;;;;;5059423;28;20219;-87
2022/01/14 06:33:55;;;;;;;49.37;22.40;;;4.00;86.40;;;;;;5059220;28;20172;-87
2022/01/14 06:36:28;;;;;;;51.03;21.87;;;4.00;85.80;;;;;;5059261;28;20203;-86
2022/01/14 06:38:53;;;;;;;50.42;21.98;;;3.90;86.10;;;;;;5060383;28;20164;-86
2022/01/14 06:41:19;;;;;;;54.37;20.20;;;3.90;86.50;;;;;;5078419;28;20196;-86
2022/01/14 06:43:45;;;;;;;50.70;22.93;;;4.10;86.70;;;;;;5065519;28;20554;-85
2022/01/14 06:46:14;;;;;;;47.33;20.63;;;4.30;86.40;;;;;;5057293;28;20845;-87
2022/01/14 06:48:39;;;;;;;49.35;21.80;;;4.50;85.90;;;;;;5076857;28;20675;-87
2022/01/14 06:51:05;;;;;;;58.17;22.67;;;4.40;85.10;;;;;;5059003;28;20213;-88
2022/01/14 06:53:31;;;;;;;40.77;21.07;;;4.30;85.00;;;;;;5058873;28;20176;-88
2022/01/14 06:55:56;;;;;;;44.30;20.50;;;4.20;85.10;;;;;;5058276;28;20201;-89
2022/01/14 06:58:22;;;;;;;39.10;21.73;;;4.30;85.50;;;;;;5077073;28;20211;-90
2022/01/14 07:00:48;;;;;;;39.90;19.83;;;4.20;85.70;;;;;;5059338;28;20180;-90
2022/01/14 07:03:13;;;;;;;38.27;21.17;;;4.20;86.00;;;;;;5058996;28;20189;-89
2022/01/14 07:05:39;;;;;;;52.13;21.90;;;4.10;86.20;;;;;;5058807;28;20234;-90
2022/01/14 07:08:05;;;;;;;35.40;20.30;;;3.90;86.40;;;;;;5059396;28;20212;-89
2022/01/14 07:10:35;;;;;;;48.63;21.43;;;3.90;86.70;;;;;;5060619;28;20216;-90
2022/01/14 07:13:01;;;;;;;36.05;20.35;;;4.20;86.70;;;;;;5056306;28;20410;-89
2022/01/14 07:15:33;;;;;;;43.80;22.80;;;4.40;86.10;;;;;;5058162;28;20181;-90
2022/01/14 07:17:59;;;;;;;43.88;22.20;;;4.20;85.70;;;;;;5057102;28;20172;-90
2022/01/14 07:20:25;;;;;;;50.07;22.10;;;4.40;85.80;;;;;;5041422;28;20185;-89
2022/01/14 07:22:51;;;;;;;39.28;20.35;;;4.60;85.20;;;;;;5061737;28;20166;-89
2022/01/14 07:25:18;;;;;;;41.23;20.57;;;4.60;84.50;;;;;;5086333;28;20259;-89
2022/01/14 07:27:44;;;;;;;46.03;22.23;;;4.60;84.40;;;;;;5067407;28;20449;-89
2022/01/14 07:30:11;;;;;;;38.63;21.63;;;4.40;84.30;;;;;;5067229;28;20209;-89
2022/01/14 07:32:36;;;;;;;41.25;22.73;;;4.40;84.60;;;;;;5066143;28;20414;-90
2022/01/14 07:35:03;;;;;;;46.10;24.33;;;4.30;84.90;;;;;;5063268;28;20573;-90
2022/01/14 07:37:29;;;;;;;42.78;22.10;;;4.20;85.20;;;;;;5058710;28;20192;-89
2022/01/14 07:39:54;;;;;;;45.83;23.30;;;4.10;85.80;;;;;;5061925;28;20283;-89
2022/01/14 07:42:20;;;;;;;47.10;22.27;;;4.10;85.90;;;;;;5078769;28;20419;-90
2022/01/14 07:44:46;;;;;;;46.20;22.83;;;4.30;86.10;;;;;;5057847;28;20263;-89
2022/01/14 07:47:12;;;;;;;59.20;23.57;;;4.40;85.90;;;;;;5076054;28;20431;-90
2022/01/14 07:49:37;;;;;;;40.80;23.13;;;4.40;85.90;;;;;;5057920;28;20215;-89
2022/01/14 07:52:03;;;;;;;43.80;24.37;;;4.30;86.00;;;;;;5058490;28;20415;-90
2022/01/14 07:54:29;;;;;;;48.35;24.55;;;4.30;86.00;;;;;;5052109;28;20260;-89
2022/01/14 07:56:58;;;;;;;52.10;24.77;;;4.50;85.90;;;;;;5039183;28;20247;-89
2022/01/14 07:59:26;;;;;;;43.30;23.90;;;4.30;85.80;;;;;;5041012;28;20501;-89
2022/01/14 08:01:55;;;;;;;49.13;24.45;;;4.30;85.90;;;;;;5044427;28;20173;-90
2022/01/14 08:04:22;;;;;;;47.75;25.00;;;4.40;85.90;;;;;;5039414;28;20208;-90
2022/01/14 08:06:50;;;;;;;66.72;25.98;;;4.30;85.90;;;;;;5056888;28;20274;-90
2022/01/14 08:09:17;;;;;;;51.58;24.27;;;4.20;86.00;;;;;;5059953;28;20218;-89
2022/01/14 08:11:45;;;;;;;48.92;25.85;;;4.40;86.00;;;;;;5056502;28;20253;-89
2022/01/14 08:14:12;;;;;;;48.78;25.83;;;4.60;85.80;;;;;;5070294;28;20231;-90
2022/01/14 08:16:38;;;;;;;40.97;24.73;;;4.70;85.70;;;;;;5060862;28;20632;-90
2022/01/14 08:19:05;;;;;;;56.17;26.25;;;4.80;85.50;;;;;;5067668;28;20176;-90
2022/01/14 08:21:31;;;;;;;49.33;25.55;;;4.90;85.20;;;;;;5073861;28;20200;-90
2022/01/14 08:23:56;;;;;;;46.72;23.63;;;5.00;84.70;;;;;;5058228;28;20177;-90
2022/01/14 08:26:22;;;;;;;38.57;23.70;;;5.10;84.10;;;;;;5060129;28;20188;-90
2022/01/14 08:28:48;;;;;;;49.30;24.10;;;5.00;83.00;;;;;;5058432;28;20565;-90
2022/01/14 08:31:16;;;;;;;50.37;25.77;;;5.00;82.70;;;;;;5063507;28;20481;-90
2022/01/14 08:33:46;;;;;;;47.55;23.77;;;5.00;82.70;;;;;;5079811;28;20195;-89
2022/01/14 08:36:12;;;;;;;50.50;24.45;;;4.60;82.70;;;;;;5063022;28;20204;-90
2022/01/14 08:38:38;;;;;;;45.03;22.40;;;4.60;83.40;;;;;;5058610;28;20705;-90
2022/01/14 08:41:05;;;;;;;45.30;24.27;;;4.70;83.70;;;;;;5058212;28;20592;-90
2022/01/14 08:43:48;;;;;;;42.40;24.20;;;4.60;83.90;;;;;;5074950;28;20204;-90
2022/01/14 08:46:14;;;;;;;44.60;21.50;;;4.50;84.30;;;;;;5057694;28;20283;-90
2022/01/14 08:48:40;;;;;;;41.63;23.23;;;4.50;84.60;;;;;;5075707;28;20229;-89
2022/01/14 08:51:06;;;;;;;53.00;27.13;;;4.60;84.70;;;;;;5059139;28;20299;-90
2022/01/14 08:53:32;;;;;;;46.08;24.65;;;4.90;84.40;;;;;;5078214;28;20499;-90
2022/01/14 08:55:58;;;;;;;44.37;23.20;;;4.80;83.80;;;;;;5062774;28;20229;-90
2022/01/14 08:58:24;;;;;;;43.42;23.63;;;4.80;83.70;;;;;;5065111;28;20181;-90
2022/01/14 09:00:50;;;;;;;51.93;25.90;;;4.90;83.80;;;;;;5064381;28;20192;-90
2022/01/14 09:03:16;;;;;;;50.00;24.17;;;4.90;83.90;;;;;;5061758;28;20490;-90
2022/01/14 09:05:42;;;;;;;53.30;25.20;;;4.90;83.80;;;;;;5058323;28;20643;-91
2022/01/14 09:08:07;;;;;;;52.38;25.90;;;5.00;83.80;;;;;;5057231;28;20569;-90
2022/01/14 09:10:33;;;;;;;54.50;24.20;;;4.90;83.80;;;;;;5060179;28;20295;-90
2022/01/14 09:12:59;;;;;;;45.10;23.43;;;4.90;84.00;;;;;;5061785;28;20176;-90
2022/01/14 09:15:26;;;;;;;49.77;23.00;;;4.80;84.30;;;;;;5061797;28;20173;-90
2022/01/14 09:17:51;;;;;;;52.58;23.70;;;4.80;84.50;;;;;;5061800;28;20692;-89
2022/01/14 09:20:17;;;;;;;47.67;23.73;;;4.70;84.90;;;;;;5084033;28;20191;-90
2022/01/14 09:22:51;;;;;;;41.87;25.17;;;4.60;85.00;;;;;;5061451;28;20185;-90
2022/01/14 09:25:19;;;;;;;44.67;23.98;;;4.70;85.20;;;;;;5044343;28;20880;-90
2022/01/14 09:27:47;;;;;;;45.53;25.25;;;4.70;85.20;;;;;;5041671;28;20233;-90
2022/01/14 09:30:13;;;;;;;54.33;25.67;;;4.90;85.20;;;;;;5041688;28;20225;-90
2022/01/14 09:32:39;;;;;;;53.10;25.43;;;4.90;84.90;;;;;;5041352;28;20181;-90
2022/01/14 09:35:06;;;;;;;43.50;24.20;;;5.10;84.90;;;;;;5058644;28;20415;-89
2022/01/14 09:37:32;;;;;;;51.38;24.60;;;5.30;84.10;;;;;;5042266;28;20450;-89
2022/01/14 09:39:58;;;;;;;42.65;22.90;;;5.30;83.40;;;;;;5043060;28;20200;-89
2022/01/14 09:42:24;;;;;;;47.65;23.65;;;5.40;83.00;;;;;;5040079;28;20191;-89
2022/01/14 09:44:50;;;;;;;40.07;22.67;;;5.40;82.70;;;;;;5059117;28;20200;-87
2022/01/14 09:47:17;;;;;;;39.70;22.80;;;5.50;82.80;;;;;;5040887;28;20204;-90
2022/01/14 09:49:44;;;;;;;38.80;22.35;;;5.60;82.50;;;;;;5043520;28;20205;-90
2022/01/14 09:52:15;;;;;;;49.67;22.00;;;5.40;82.30;;;;;;5040646;28;20181;-89
2022/01/14 09:54:42;;;;;;;52.50;23.88;;;5.40;82.50;;;;;;5042824;28;20169;-89
2022/01/14 09:57:10;;;;;;;42.72;22.40;;;5.30;82.80;;;;;;5044729;28;20193;-89
2022/01/14 09:59:36;;;;;;;45.30;24.15;;;5.30;83.00;;;;;;5040538;28;20177;-88
2022/01/14 10:02:01;;;;;;;44.93;23.17;;;5.30;83.30;;;;;;5041066;28;20204;-91
2022/01/14 10:04:27;;;;;;;44.93;23.00;;;5.50;83.50;;;;;;5058962;28;20200;-91
2022/01/14 10:06:55;;;;;;;38.53;22.30;;;5.80;83.00;;;;;;5040927;28;20723;-92
2022/01/14 10:09:33;;;;;;;43.28;24.08;;;6.00;82.40;;;;;;5059639;28;20173;-91
2022/01/14 10:12:08;;;;;;;42.17;22.30;;;6.00;82.00;;;;;;5055255;28;20177;-90
2022/01/14 10:14:40;;;;;;;44.80;22.90;;;6.00;82.00;;;;;;5047764;28;20255;-91
2022/01/14 10:17:09;;;;;;;54.45;24.50;;;6.10;82.00;;;;;;5041621;28;20258;-88
2022/01/14 10:19:38;;;;;;;40.08;22.55;;;5.80;82.00;;;;;;5041356;28;20551;-89
2022/01/14 10:22:24;;;;;;;38.88;22.00;;;5.80;82.30;;;;;;5041781;28;20543;-87
2022/01/14 10:25:13;;;;;;;40.70;21.23;;;5.80;82.70;;;;;;5048235;28;20632;-87
2022/01/14 10:27:44;;;;;;;38.38;21.83;;;5.90;82.90;;;;;;5047721;28;20200;-87
2022/01/14 10:30:29;;;;;;;38.90;20.98;;;5.90;82.90;;;;;;5041456;28;20278;-87
2022/01/14 10:33:00;;;;;;;47.78;21.48;;;6.00;83.00;;;;;;5045216;28;20170;-89
2022/01/14 10:35:29;;;;;;;41.88;22.20;;;6.00;83.10;;;;;;5041439;28;20170;-89
2022/01/14 10:37:59;;;;;;;41.83;24.75;;;6.00;83.00;;;;;;5040327;28;20267;-89
2022/01/14 10:40:28;;;;;;;42.60;24.42;;;6.20;83.20;;;;;;5039872;28;20174;-89
2022/01/14 10:43:09;;;;;;;33.70;20.55;;;6.20;83.10;;;;;;5040389;28;20303;-89
2022/01/14 10:45:36;;;;;;;41.85;20.38;;;6.30;82.90;;;;;;5039601;28;20184;-88
2022/01/14 10:48:08;;;;;;;36.40;21.55;;;6.50;83.00;;;;;;5039901;28;20189;-89
2022/01/14 10:50:39;;;;;;;43.55;22.52;;;6.80;82.30;;;;;;5040447;28;20562;-89
2022/01/14 10:53:14;;;;;;;30.63;19.95;;;6.80;81.90;;;;;;5040615;28;20667;-89
2022/01/14 10:55:39;;;;;;;38.78;20.77;;;6.80;82.60;;;;;;5046412;28;20180;-89
2022/01/14 10:58:12;;;;;;;43.83;21.63;;;6.80;81.90;;;;;;5059730;28;20497;-88
2022/01/14 11:00:41;;;;;;;40.28;22.50;;;6.90;82.00;;;;;;5059676;28;20173;-89
2022/01/14 11:03:06;;;;;;;38.92;22.33;;;6.90;81.80;;;;;;5059093;28;20187;-89
2022/01/14 11:05:34;;;;;;;36.87;21.37;;;7.00;81.70;;;;;;5059830;28;20177;-89
2022/01/14 11:08:01;;;;;;;37.95;20.40;;;7.10;81.70;;;;;;5077260;28;20188;-89
2022/01/14 11:10:36;;;;;;;44.22;22.38;;;7.20;81.20;;;;;;5058409;28;20207;-89
2022/01/14 11:13:05;;;;;;;36.85;22.63;;;7.40;80.90;;;;;;5058101;28;20168;-89
2022/01/14 11:15:32;;;;;;;33.70;22.42;;;7.40;80.70;;;;;;5076547;28;20172;-89
2022/01/14 11:18:04;;;;;;;48.80;22.63;;;7.50;80.50;;;;;;5059845;28;20192;-89
2022/01/14 11:23:14;;;;;;;31.02;20.35;;;7.60;80.20;;;;;;5059430;28;20224;-89
2022/01/14 11:23:21;;;;;;;34.38;23.38;;;7.70;79.90;;;;;;5077234;28;20229;-89
2022/01/14 11:26:08;;;;;;;38.35;22.40;;;7.60;79.70;;;;;;5075432;28;20185;-89
2022/01/14 11:28:39;;;;;;;46.13;24.38;;;7.70;79.70;;;;;;5075474;28;20664;-88
2022/01/14 11:31:44;;;;;;;51.72;25.48;;;7.40;79.70;;;;;;5076410;28;20208;-89
2022/01/14 11:34:30;;;;;;;41.00;23.77;;;6.90;80.90;;;;;;5019880;28;20174;-89
2022/01/14 11:36:59;;;;;;;51.95;25.90;;;6.80;81.70;;;;;;5011585;28;20204;-89
2022/01/14 11:39:31;;;;;;;48.25;25.05;;;6.70;82.50;;;;;;5054870;28;20722;-89
2022/01/14 11:41:59;;;;;;;43.25;23.13;;;7.00;83.00;;;;;;5078071;28;20537;-89
2022/01/14 11:45:01;;;;;;;43.42;25.67;;;6.80;82.90;;;;;;5084260;28;20188;-89
2022/01/14 11:47:39;;;;;;;47.33;25.95;;;7.00;83.30;;;;;;5027527;28;20202;-88
2022/01/14 11:50:26;;;;;;;40.92;23.98;;;7.20;83.20;;;;;;5077615;28;20204;-89
2022/01/14 11:52:52;;;;;;;53.60;24.00;;;7.30;82.60;;;;;;5078876;28;20190;-89
2022/01/14 11:55:21;;;;;;;60.90;25.80;;;7.40;82.30;;;;;;5076764;28;20173;-89
2022/01/14 11:57:58;;;;;;;50.72;27.25;;;7.40;81.80;;;;;;5076206;28;20232;-88
2022/01/14 12:00:30;;;;;;;39.00;22.50;;;7.30;81.80;;;;;;5078259;28;20187;-89
2022/01/14 12:02:56;;;;;;;43.80;24.45;;;7.30;81.80;;;;;;5079673;28;20234;-89
2022/01/14 12:05:26;;;;;;;40.60;22.93;;;7.70;82.00;;;;;;5087399;28;20168;-89
2022/01/14 12:08:04;;;;;;;42.40;24.00;;;7.90;81.50;;;;;;5078855;28;20512;-89
2022/01/14 12:10:43;;;;;;;41.88;22.63;;;8.00;80.70;;;;;;5075960;28;20725;-88
2022/01/14 12:13:48;;;;;;;38.15;21.90;;;8.20;80.40;;;;;;5078650;28;20624;-88
2022/01/14 12:16:20;;;;;;;42.25;22.55;;;8.40;80.00;;;;;;5079252;28;20223;-89
2022/01/14 12:18:52;;;;;;;46.72;25.67;;;8.50;79.10;;;;;;5093364;28;20195;-88
2022/01/14 12:21:18;;;;;;;44.03;25.95;;;8.60;78.40;;;;;;5084959;28;20183;-89
2022/01/14 12:23:46;;;;;;;37.20;24.50;;;8.70;78.40;;;;;;5075559;28;20251;-89
2022/01/14 12:26:19;;;;;;;44.30;25.23;;;8.90;77.80;;;;;;5074572;28;21012;-88
2022/01/14 12:29:06;;;;;;;46.55;22.10;;;8.90;77.10;;;;;;5074958;28;20194;-89
2022/01/14 12:32:00;;;;;;;50.00;24.42;;;8.80;76.90;;;;;;5044087;28;20231;-89
2022/01/14 12:34:26;;;;;;;38.60;25.05;;;8.90;77.40;;;;;;5075665;28;20172;-89
2022/01/14 12:36:51;;;;;;;41.43;22.73;;;8.90;77.50;;;;;;5085051;28;20207;-88
2022/01/14 12:39:20;;;;;;;39.30;24.37;;;9.00;77.50;;;;;;5087784;28;20181;-88
2022/01/14 12:41:46;;;;;;;42.47;25.25;;;8.90;76.80;;;;;;5076876;28;20169;-89
2022/01/14 12:44:12;;;;;;;40.63;23.43;;;9.00;76.70;;;;;;5073933;28;20187;-88
2022/01/14 12:46:51;;;;;;;39.30;23.83;;;9.00;76.40;;;;;;5074437;28;20521;-89
2022/01/14 12:49:32;;;;;;;41.45;23.05;;;9.00;76.60;;;;;;5073941;28;20287;-90
2022/01/14 12:52:12;;;;;;;44.72;24.67;;;9.10;76.80;;;;;;5074200;28;20186;-90
2022/01/14 12:54:39;;;;;;;48.88;27.63;;;8.90;76.80;;;;;;5073873;28;20168;-90
2022/01/14 12:57:06;;;;;;;43.22;26.35;;;8.80;77.40;;;;;;5074957;28;20219;-89
2022/01/14 12:59:42;;;;;;;48.92;29.65;;;8.70;78.10;;;;;;5073604;28;20616;-89
2022/01/14 13:02:14;;;;;;;48.97;29.08;;;8.60;78.50;;;;;;5073884;28;20214;-89
2022/01/14 13:04:39;;;;;;;48.20;27.00;;;8.60;78.90;;;;;;5074656;28;20172;-89
2022/01/14 13:07:05;;;;;;;55.00;31.47;;;8.60;79.00;;;;;;5074939;28;20211;-89
2022/01/14 13:09:34;;;;;;;44.73;26.93;;;8.70;79.20;;;;;;5074574;28;20585;-89
2022/01/14 13:12:04;;;;;;;50.22;28.95;;;8.70;79.20;;;;;;5074365;28;20176;-89